Dades meteomassalio
Diari Summary for Gener 21, 2018 Units:  English    Metric   Both
« Previous Day
Next Day »
Diari Semanal Mensual Anual Personalitzat
  Maxima: Minima: Mijana:
Temperatura: TemperatureC °F 12.8 °F 14.8 °F
Rosada: DewpointC °F 5.8 °F 8.3 °F
Humitat: Humidity % 58 % 65 %
Velocitat del vent: WindSpeedKMH mph 22.2 mph 39.8 mph
Racha vent: WindSpeedGustKMH mph - -
Vent:- - NW
Pressio: PressurehPa in 1024.3 in -
Pluja: 0.0 in    
Historical Graphs
 
 
Tabular Data for Gener 21, 2018
Time Temperature Dew Point Pressure Wind Wind Speed Wind Gust Humidity Rainfall Rate (Hourly) solar Conditions
TemperatureC °F DewpointC °F PressurehPa in Calm     Humidity % HourlyPrecipMM in SolarRadiationWatts/m^2 W/m2 Conditions
00:01 13.9 °F 5.8 °F 1024.9 in NNW 32.2 mph 32.2 mph 58 % 0.0 in 0.0 W/m2 CLR
00:06 13.9 °F 6.0 °F 1024.9 in North 29.6 mph 29.6 mph 59 % 0.0 in 0.0 W/m2 CLR
00:11 13.9 °F 6.0 °F 1024.9 in WNW 33.3 mph 33.3 mph 59 % 0.0 in 0.0 W/m2 CLR
00:16 14.4 °F 6.3 °F 1024.9 in North 24.1 mph 24.1 mph 58 % 0.0 in 0.0 W/m2 CLR
00:21 14.4 °F 6.3 °F 1024.9 in NW 48.1 mph 48.1 mph 58 % 0.0 in 0.0 W/m2 CLR
00:26 14.4 °F 6.5 °F 1024.9 in NW 40.7 mph 40.7 mph 59 % 0.0 in 0.0 W/m2 CLR
00:31 14.4 °F 6.3 °F 1024.6 in NW 37.0 mph 37.0 mph 58 % 0.0 in 0.0 W/m2 CLR
00:36 13.9 °F 5.8 °F 1024.9 in NNW 29.6 mph 29.6 mph 58 % 0.0 in 0.0 W/m2 CLR
00:41 13.9 °F 6.0 °F 1024.6 in NNE 40.7 mph 40.7 mph 59 % 0.0 in 0.0 W/m2 CLR
00:46 13.9 °F 6.0 °F 1024.6 in NW 31.5 mph 31.5 mph 59 % 0.0 in 0.0 W/m2 CLR
00:51 13.9 °F 6.2 °F 1024.6 in NW 25.9 mph 25.9 mph 60 % 0.0 in 0.0 W/m2 CLR
00:56 13.9 °F 6.2 °F 1024.6 in NNW 25.9 mph 25.9 mph 60 % 0.0 in 0.0 W/m2 CLR
01:01 13.9 °F 6.2 °F 1024.6 in NNW 29.6 mph 29.6 mph 60 % 0.0 in 0.0 W/m2 CLR
01:06 13.3 °F 5.9 °F 1024.6 in NW 40.7 mph 40.7 mph 61 % 0.0 in 0.0 W/m2 CLR
01:11 13.3 °F 5.9 °F 1024.6 in NW 31.5 mph 31.5 mph 61 % 0.0 in 0.0 W/m2 CLR
01:16 13.3 °F 5.9 °F 1024.6 in NNW 33.8 mph 33.8 mph 61 % 0.0 in 0.0 W/m2 CLR
01:21 13.9 °F 6.5 °F 1024.6 in NW 35.4 mph 35.4 mph 61 % 0.0 in 0.0 W/m2 CLR
01:26 13.9 °F 6.5 °F 1024.3 in NNW 37.0 mph 37.0 mph 61 % 0.0 in 0.0 W/m2 CLR
01:31 13.3 °F 5.9 °F 1024.3 in NW 42.6 mph 42.6 mph 61 % 0.0 in 0.0 W/m2 CLR
01:36 13.3 °F 5.9 °F 1024.6 in NW 40.7 mph 40.7 mph 61 % 0.0 in 0.0 W/m2 CLR
01:41 13.3 °F 5.9 °F 1024.6 in NW 42.6 mph 42.6 mph 61 % 0.0 in 0.0 W/m2 CLR
01:46 13.3 °F 5.9 °F 1024.6 in NNW 32.2 mph 32.2 mph 61 % 0.0 in 0.0 W/m2 CLR
01:51 13.3 °F 6.2 °F 1024.6 in NNW 37.0 mph 37.0 mph 62 % 0.0 in 0.0 W/m2 CLR
01:56 13.3 °F 5.9 °F 1024.6 in NNW 38.9 mph 38.9 mph 61 % 0.0 in 0.0 W/m2 CLR
02:01 13.3 °F 6.2 °F 1024.6 in NW 35.2 mph 35.2 mph 62 % 0.0 in 0.0 W/m2 CLR
02:06 13.3 °F 6.2 °F 1024.6 in NNW 38.9 mph 38.9 mph 62 % 0.0 in 0.0 W/m2 CLR
02:11 13.3 °F 6.2 °F 1024.6 in NNW 40.2 mph 40.2 mph 62 % 0.0 in 0.0 W/m2 CLR
02:16 13.3 °F 6.2 °F 1024.6 in NW 31.5 mph 31.5 mph 62 % 0.0 in 0.0 W/m2 CLR
02:21 13.3 °F 6.2 °F 1024.6 in NNW 35.2 mph 35.2 mph 62 % 0.0 in 0.0 W/m2 CLR
02:26 13.3 °F 6.2 °F 1024.6 in NW 33.3 mph 33.3 mph 62 % 0.0 in 0.0 W/m2 CLR
02:31 13.3 °F 5.9 °F 1024.6 in NW 33.3 mph 33.3 mph 61 % 0.0 in 0.0 W/m2 CLR
02:37 13.9 °F 6.7 °F 1024.6 in NNW 32.2 mph 32.2 mph 62 % 0.0 in 0.0 W/m2 CLR
02:42 13.9 °F 6.5 °F 1024.6 in NW 31.5 mph 31.5 mph 61 % 0.0 in 0.0 W/m2 CLR
02:47 13.9 °F 6.7 °F 1024.6 in NW 40.2 mph 40.2 mph 62 % 0.0 in 0.0 W/m2 CLR
02:52 13.9 °F 6.5 °F 1024.6 in WNW 29.6 mph 29.6 mph 61 % 0.0 in 0.0 W/m2 CLR
02:56 13.9 °F 6.5 °F 1024.6 in NW 33.3 mph 33.3 mph 61 % 0.0 in 0.0 W/m2 CLR
03:01 13.3 °F 5.9 °F 1024.6 in NNW 43.4 mph 43.4 mph 61 % 0.0 in 0.0 W/m2 CLR
03:06 13.9 °F 6.5 °F 1024.6 in NW 38.9 mph 38.9 mph 61 % 0.0 in 0.0 W/m2 CLR
03:11 13.9 °F 6.5 °F 1024.6 in NW 35.2 mph 35.2 mph 61 % 0.0 in 0.0 W/m2 CLR
03:17 13.9 °F 6.5 °F 1024.9 in NW 31.5 mph 31.5 mph 61 % 0.0 in 0.0 W/m2 CLR
03:22 13.9 °F 6.7 °F 1024.9 in NNW 31.5 mph 31.5 mph 62 % 0.0 in 0.0 W/m2 CLR
03:27 13.3 °F 6.2 °F 1024.9 in WNW 25.9 mph 25.9 mph 62 % 0.0 in 0.0 W/m2 CLR
03:32 13.9 °F 6.7 °F 1024.9 in WNW 29.6 mph 29.6 mph 62 % 0.0 in 0.0 W/m2 CLR
03:37 13.3 °F 6.2 °F 1024.9 in NNW 29.6 mph 29.6 mph 62 % 0.0 in 0.0 W/m2 CLR
03:42 13.3 °F 6.2 °F 1024.9 in NNW 31.5 mph 31.5 mph 62 % 0.0 in 0.0 W/m2 CLR
03:47 13.3 °F 6.2 °F 1024.9 in NNW 37.0 mph 37.0 mph 62 % 0.0 in 0.0 W/m2 CLR
03:52 13.9 °F 6.9 °F 1024.9 in North 40.7 mph 40.7 mph 63 % 0.0 in 0.0 W/m2 CLR
03:57 13.9 °F 6.9 °F 1024.9 in NW 51.8 mph 51.8 mph 63 % 0.0 in 0.0 W/m2 CLR
04:02 13.9 °F 6.9 °F 1025.3 in NW 44.4 mph 44.4 mph 63 % 0.0 in 0.0 W/m2 CLR
04:07 13.9 °F 6.9 °F 1025.3 in NW 42.6 mph 42.6 mph 63 % 0.0 in 0.0 W/m2 CLR
04:12 13.9 °F 6.9 °F 1025.3 in NW 42.6 mph 42.6 mph 63 % 0.0 in 0.0 W/m2 CLR
04:17 13.9 °F 6.9 °F 1025.3 in NW 31.5 mph 31.5 mph 63 % 0.0 in 0.0 W/m2 CLR
04:22 13.9 °F 6.9 °F 1025.3 in NNW 40.7 mph 40.7 mph 63 % 0.0 in 0.0 W/m2 CLR
04:27 13.9 °F 6.9 °F 1025.3 in NW 32.2 mph 32.2 mph 63 % 0.0 in 0.0 W/m2 CLR
04:32 13.9 °F 7.2 °F 1025.3 in NNW 42.6 mph 42.6 mph 64 % 0.0 in 0.0 W/m2 CLR
04:37 13.9 °F 7.2 °F 1025.6 in WNW 31.5 mph 31.5 mph 64 % 0.0 in 0.0 W/m2 CLR
04:42 13.9 °F 7.2 °F 1025.3 in NW 33.3 mph 33.3 mph 64 % 0.0 in 0.0 W/m2 CLR
04:47 13.9 °F 7.2 °F 1025.3 in NW 32.2 mph 32.2 mph 64 % 0.0 in 0.0 W/m2 CLR
04:52 13.9 °F 7.2 °F 1025.3 in NW 48.1 mph 48.1 mph 64 % 0.0 in 0.0 W/m2 CLR
04:57 13.9 °F 7.2 °F 1025.3 in WNW 35.2 mph 35.2 mph 64 % 0.0 in 0.0 W/m2 CLR
05:02 13.9 °F 7.2 °F 1025.3 in NW 42.6 mph 42.6 mph 64 % 0.0 in 0.0 W/m2 CLR
05:07 13.9 °F 7.2 °F 1025.3 in NNW 33.3 mph 33.3 mph 64 % 0.0 in 0.0 W/m2 CLR
05:12 13.9 °F 7.4 °F 1025.3 in NNW 31.5 mph 31.5 mph 65 % 0.0 in 0.0 W/m2 CLR
05:17 13.9 °F 7.4 °F 1025.3 in NNW 42.6 mph 42.6 mph 65 % 0.0 in 0.0 W/m2 CLR
05:22 13.9 °F 7.4 °F 1025.3 in NW 40.7 mph 40.7 mph 65 % 0.0 in 0.0 W/m2 CLR
05:27 13.9 °F 7.4 °F 1025.3 in NW 30.6 mph 30.6 mph 65 % 0.0 in 0.0 W/m2 CLR
05:32 13.9 °F 7.4 °F 1025.3 in NW 31.5 mph 31.5 mph 65 % 0.0 in 0.0 W/m2 CLR
05:37 13.9 °F 7.4 °F 1025.3 in NW 41.8 mph 41.8 mph 65 % 0.0 in 0.0 W/m2 CLR
05:42 13.9 °F 7.4 °F 1025.3 in NW 41.8 mph 41.8 mph 65 % 0.0 in 0.0 W/m2 CLR
05:47 13.3 °F 6.9 °F 1025.3 in NW 42.6 mph 42.6 mph 65 % 0.0 in 0.0 W/m2 CLR
05:52 13.9 °F 7.4 °F 1025.6 in NW 40.7 mph 40.7 mph 65 % 0.0 in 0.0 W/m2 CLR
05:57 13.9 °F 7.6 °F 1025.6 in NW 38.9 mph 38.9 mph 66 % 0.0 in 0.0 W/m2 CLR
06:02 13.9 °F 7.6 °F 1025.3 in NW 42.6 mph 42.6 mph 66 % 0.0 in 0.0 W/m2 CLR
06:07 13.3 °F 7.1 °F 1025.3 in NW 42.6 mph 42.6 mph 66 % 0.0 in 0.0 W/m2 CLR
06:12 13.3 °F 7.3 °F 1025.3 in NW 38.9 mph 38.9 mph 67 % 0.0 in 0.0 W/m2 CLR
06:17 13.3 °F 7.3 °F 1025.3 in NW 35.2 mph 35.2 mph 67 % 0.0 in 0.0 W/m2 CLR
06:22 13.9 °F 7.8 °F 1025.3 in NNW 37.0 mph 37.0 mph 67 % 0.0 in 0.0 W/m2 CLR
06:27 13.9 °F 7.8 °F 1025.6 in NW 46.3 mph 46.3 mph 67 % 0.0 in 0.0 W/m2 CLR
06:32 13.9 °F 7.8 °F 1025.3 in NNW 44.4 mph 44.4 mph 67 % 0.0 in 0.0 W/m2 CLR
06:37 13.9 °F 7.8 °F 1025.6 in NNW 48.1 mph 48.1 mph 67 % 0.0 in 0.0 W/m2 CLR
06:41 13.3 °F 7.3 °F 1025.3 in NNW 46.3 mph 46.3 mph 67 % 0.0 in 0.0 W/m2 CLR
06:46 13.3 °F 7.3 °F 1025.6 in NW 42.6 mph 42.6 mph 67 % 0.0 in 0.0 W/m2 CLR
06:51 13.9 °F 7.8 °F 1025.6 in NNW 42.6 mph 42.6 mph 67 % 0.0 in 0.0 W/m2 CLR
06:56 13.3 °F 7.3 °F 1025.6 in NNW 53.7 mph 53.7 mph 67 % 0.0 in 0.0 W/m2 CLR
07:01 13.3 °F 7.1 °F 1025.6 in NW 40.7 mph 40.7 mph 66 % 0.0 in 0.0 W/m2 CLR
07:06 13.3 °F 7.3 °F 1025.6 in NW 40.7 mph 40.7 mph 67 % 0.0 in 0.0 W/m2 CLR
07:21 13.3 °F 7.1 °F 1025.6 in NW 38.9 mph 38.9 mph 66 % 0.0 in 0.0 W/m2 CLR
07:26 13.9 °F 7.6 °F 1026.0 in NW 42.6 mph 42.6 mph 66 % 0.0 in 0.0 W/m2 CLR
07:31 13.9 °F 7.6 °F 1026.0 in North 38.9 mph 38.9 mph 66 % 0.0 in 0.0 W/m2 CLR
07:41 13.9 °F 7.6 °F 1026.3 in NW 31.5 mph 31.5 mph 66 % 0.0 in 0.0 W/m2 CLR
07:46 13.9 °F 7.6 °F 1026.3 in WNW 32.2 mph 32.2 mph 66 % 0.0 in 0.0 W/m2 CLR
07:51 13.9 °F 7.4 °F 1026.6 in NW 33.3 mph 33.3 mph 65 % 0.0 in 0.0 W/m2 CLR
07:56 13.9 °F 7.4 °F 1026.6 in NW 29.6 mph 29.6 mph 65 % 0.0 in 0.0 W/m2 CLR
08:01 13.9 °F 7.6 °F 1026.6 in WNW 31.5 mph 31.5 mph 66 % 0.0 in 0.0 W/m2 CLR
08:11 13.9 °F 7.6 °F 1027.0 in NW 27.8 mph 27.8 mph 66 % 0.0 in 0.0 W/m2 OVC
08:16 13.3 °F 7.1 °F 1027.0 in NW 29.6 mph 29.6 mph 66 % 0.0 in 0.0 W/m2 OVC
08:21 13.3 °F 7.1 °F 1027.0 in NW 31.5 mph 31.5 mph 66 % 0.0 in 0.0 W/m2 OVC
08:26 13.3 °F 7.1 °F 1027.0 in NW 24.1 mph 24.1 mph 66 % 0.0 in 0.0 W/m2 OVC
08:31 13.3 °F 7.1 °F 1027.0 in NW 24.1 mph 24.1 mph 66 % 0.0 in 5.0 W/m2 OVC
08:36 12.8 °F 6.8 °F 1027.0 in NW 31.5 mph 31.5 mph 67 % 0.0 in 5.0 W/m2 OVC
08:46 13.3 °F 7.3 °F 1027.0 in NW 31.5 mph 31.5 mph 67 % 0.0 in 9.0 W/m2 BKN
08:51 13.3 °F 7.3 °F 1027.0 in NW 25.9 mph 25.9 mph 67 % 0.0 in 11.0 W/m2 BKN
08:56 13.3 °F 7.3 °F 1027.0 in NW 31.5 mph 31.5 mph 67 % 0.0 in 12.0 W/m2 BKN
09:06 13.3 °F 7.3 °F 1027.0 in NW 33.3 mph 33.3 mph 67 % 0.0 in 14.0 W/m2 BKN
09:11 13.3 °F 7.6 °F 1027.0 in NW 29.6 mph 29.6 mph 68 % 0.0 in 18.0 W/m2 BKN
09:16 13.3 °F 7.6 °F 1027.0 in NNW 25.7 mph 26.2 mph 68 % 0.0 in 18.0 W/m2 BKN
09:21 13.3 °F 7.6 °F 1027.0 in NNW 29.6 mph 29.6 mph 68 % 0.0 in 19.0 W/m2 BKN
09:26 13.3 °F 7.6 °F 1027.0 in NNW 37.0 mph 37.0 mph 68 % 0.0 in 21.0 W/m2 BKN
09:32 13.3 °F 7.6 °F 1026.6 in NNW 31.5 mph 31.5 mph 68 % 0.0 in 21.0 W/m2 BKN
09:37 13.3 °F 7.6 °F 1027.0 in NW 42.6 mph 42.6 mph 68 % 0.0 in 25.0 W/m2 BKN
09:42 13.3 °F 7.6 °F 1027.0 in NW 31.5 mph 31.5 mph 68 % 0.0 in 26.0 W/m2 BKN
09:47 13.3 °F 7.6 °F 1027.0 in NNW 31.5 mph 31.5 mph 68 % 0.0 in 28.0 W/m2 BKN
09:52 13.3 °F 7.3 °F 1027.0 in NW 31.5 mph 31.5 mph 67 % 0.0 in 30.0 W/m2 BKN
09:57 13.3 °F 7.3 °F 1027.3 in NW 42.6 mph 42.6 mph 67 % 0.0 in 35.0 W/m2 BKN
10:02 13.9 °F 7.8 °F 1027.3 in WNW 33.3 mph 33.3 mph 67 % 0.0 in 39.0 W/m2 BKN
10:07 13.3 °F 7.3 °F 1027.3 in WNW 35.2 mph 35.2 mph 67 % 0.0 in 42.0 W/m2 BKN
10:12 13.9 °F 7.8 °F 1027.3 in NW 38.9 mph 38.9 mph 67 % 0.0 in 44.0 W/m2 BKN
10:17 13.3 °F 7.6 °F 1027.3 in WNW 22.2 mph 22.2 mph 68 % 0.0 in 54.0 W/m2 SCT
10:22 13.9 °F 8.1 °F 1027.3 in NNW 44.4 mph 44.4 mph 68 % 0.0 in 67.0 W/m2 SCT
10:27 13.9 °F 8.1 °F 1027.3 in NW 31.5 mph 31.5 mph 68 % 0.0 in 74.0 W/m2 SCT
10:32 13.9 °F 8.1 °F 1027.3 in NW 37.0 mph 37.0 mph 68 % 0.0 in 72.0 W/m2 FEW
10:37 13.9 °F 8.1 °F 1027.3 in NW 40.7 mph 40.7 mph 68 % 0.0 in 83.0 W/m2 FEW
10:42 13.9 °F 8.1 °F 1027.3 in NNW 38.9 mph 38.9 mph 68 % 0.0 in 83.0 W/m2 FEW
10:47 13.9 °F 8.1 °F 1027.3 in NNW 35.2 mph 35.2 mph 68 % 0.0 in 111.0 W/m2 CLR
10:52 13.9 °F 8.1 °F 1027.3 in NNW 35.4 mph 35.4 mph 68 % 0.0 in 221.0 W/m2 CLR
10:57 14.4 °F 8.4 °F 1027.3 in North 48.1 mph 48.1 mph 67 % 0.0 in 220.0 W/m2 CLR
11:02 15.0 °F 8.9 °F 1027.0 in North 38.9 mph 38.9 mph 67 % 0.0 in 353.0 W/m2 CLR
11:07 15.0 °F 8.7 °F 1027.3 in NNW 55.5 mph 55.5 mph 66 % 0.0 in 343.0 W/m2 CLR
11:12 15.6 °F 9.2 °F 1027.3 in NNW 55.5 mph 55.5 mph 66 % 0.0 in 329.0 W/m2 CLR
11:17 15.6 °F 9.0 °F 1027.7 in NNW 46.3 mph 46.3 mph 65 % 0.0 in 369.0 W/m2 CLR
11:22 15.6 °F 9.0 °F 1027.7 in NW 55.5 mph 55.5 mph 65 % 0.0 in 345.0 W/m2 CLR
11:27 15.6 °F 9.0 °F 1027.7 in North 48.1 mph 48.1 mph 65 % 0.0 in 413.0 W/m2 CLR
11:32 16.1 °F 9.3 °F 1027.3 in NNW 51.8 mph 51.8 mph 64 % 0.0 in 417.0 W/m2 CLR
11:37 16.1 °F 9.1 °F 1027.3 in North 55.5 mph 55.5 mph 63 % 0.0 in 418.0 W/m2 CLR
11:42 16.1 °F 9.1 °F 1027.3 in NNW 61.1 mph 61.1 mph 63 % 0.0 in 420.0 W/m2 CLR
11:47 16.1 °F 9.1 °F 1027.3 in NNW 55.5 mph 55.5 mph 63 % 0.0 in 404.0 W/m2 CLR
11:52 16.1 °F 9.1 °F 1027.3 in NW 48.1 mph 48.1 mph 63 % 0.0 in 432.0 W/m2 CLR
11:57 16.1 °F 8.8 °F 1027.0 in NNW 51.8 mph 51.8 mph 62 % 0.0 in 439.0 W/m2 CLR
12:02 16.7 °F 9.3 °F 1027.0 in NNW 61.1 mph 61.1 mph 62 % 0.0 in 443.0 W/m2 CLR
12:07 16.7 °F 9.6 °F 1027.0 in North 50.0 mph 50.0 mph 63 % 0.0 in 450.0 W/m2 CLR
12:12 16.7 °F 9.6 °F 1026.6 in NW 59.2 mph 59.2 mph 63 % 0.0 in 454.0 W/m2 CLR
12:17 16.7 °F 9.3 °F 1027.0 in NW 51.8 mph 51.8 mph 62 % 0.0 in 461.0 W/m2 CLR
12:22 16.7 °F 9.3 °F 1027.0 in NNW 42.6 mph 42.6 mph 62 % 0.0 in 459.0 W/m2 CLR
12:27 16.7 °F 9.3 °F 1027.0 in North 48.1 mph 48.1 mph 62 % 0.0 in 457.0 W/m2 CLR
12:32 17.2 °F 9.9 °F 1027.0 in North 40.7 mph 40.7 mph 62 % 0.0 in 468.0 W/m2 CLR
12:37 17.2 °F 9.6 °F 1027.0 in NNW 42.6 mph 42.6 mph 61 % 0.0 in 448.0 W/m2 CLR
12:42 17.2 °F 9.6 °F 1026.6 in NW 38.9 mph 38.9 mph 61 % 0.0 in 478.0 W/m2 CLR
12:47 17.2 °F 9.4 °F 1026.3 in NNW 55.5 mph 55.5 mph 60 % 0.0 in 485.0 W/m2 CLR
12:52 17.8 °F 9.9 °F 1026.6 in North 68.5 mph 68.5 mph 60 % 0.0 in 489.0 W/m2 CLR
12:57 17.8 °F 10.2 °F 1026.3 in NW 53.7 mph 53.7 mph 61 % 0.0 in 490.0 W/m2 CLR
13:02 17.8 °F 9.9 °F 1026.3 in North 55.5 mph 55.5 mph 60 % 0.0 in 490.0 W/m2 CLR
13:07 17.8 °F 9.9 °F 1026.3 in NNW 45.1 mph 45.1 mph 60 % 0.0 in 427.0 W/m2 CLR
13:12 17.8 °F 9.9 °F 1026.3 in North 50.0 mph 50.0 mph 60 % 0.0 in 366.0 W/m2 CLR
13:17 17.8 °F 10.2 °F 1026.3 in NW 42.6 mph 42.6 mph 61 % 0.0 in 381.0 W/m2 CLR
13:22 17.8 °F 10.2 °F 1026.3 in NNE 42.6 mph 42.6 mph 61 % 0.0 in 485.0 W/m2 CLR
13:27 18.3 °F 10.2 °F 1026.0 in NW 57.4 mph 57.4 mph 59 % 0.0 in 478.0 W/m2 CLR
13:32 17.8 °F 9.9 °F 1025.6 in North 61.1 mph 61.1 mph 60 % 0.0 in 476.0 W/m2 CLR
13:37 17.8 °F 9.9 °F 1025.6 in North 61.1 mph 61.1 mph 60 % 0.0 in 471.0 W/m2 CLR
13:42 17.8 °F 9.9 °F 1025.6 in NNE 57.9 mph 57.9 mph 60 % 0.0 in 471.0 W/m2 CLR
13:47 17.8 °F 9.9 °F 1025.6 in NNW 59.2 mph 59.2 mph 60 % 0.0 in 468.0 W/m2 CLR
13:52 17.8 °F 9.9 °F 1025.6 in NW 55.5 mph 55.5 mph 60 % 0.0 in 468.0 W/m2 CLR
13:57 17.8 °F 9.9 °F 1025.6 in NNE 62.9 mph 62.9 mph 60 % 0.0 in 462.0 W/m2 CLR
14:02 17.8 °F 9.9 °F 1025.3 in NNW 48.1 mph 48.1 mph 60 % 0.0 in 457.0 W/m2 CLR
14:07 17.8 °F 9.9 °F 1025.3 in North 42.6 mph 42.6 mph 60 % 0.0 in 454.0 W/m2 CLR
14:12 18.3 °F 10.4 °F 1025.3 in North 54.7 mph 54.7 mph 60 % 0.0 in 452.0 W/m2 CLR
14:17 17.8 °F 9.9 °F 1024.9 in North 55.5 mph 55.5 mph 60 % 0.0 in 446.0 W/m2 CLR
14:22 18.3 °F 10.2 °F 1024.9 in NNW 50.0 mph 50.0 mph 59 % 0.0 in 441.0 W/m2 CLR
14:27 18.3 °F 10.4 °F 1024.9 in North 66.6 mph 66.6 mph 60 % 0.0 in 436.0 W/m2 CLR
14:32 17.8 °F 9.9 °F 1025.3 in NW 40.7 mph 40.7 mph 60 % 0.0 in 431.0 W/m2 CLR
14:37 18.3 °F 10.4 °F 1025.6 in North 51.8 mph 51.8 mph 60 % 0.0 in 431.0 W/m2 CLR
14:42 17.8 °F 9.9 °F 1025.6 in NNW 25.9 mph 25.9 mph 60 % 0.0 in 427.0 W/m2 CLR
14:47 18.3 °F 10.4 °F 1026.0 in North 46.3 mph 46.3 mph 60 % 0.0 in 420.0 W/m2 CLR
14:52 18.3 °F 10.4 °F 1025.6 in NW 31.5 mph 31.5 mph 60 % 0.0 in 411.0 W/m2 CLR
14:57 18.3 °F 10.7 °F 1025.6 in NNW 29.6 mph 29.6 mph 61 % 0.0 in 399.0 W/m2 CLR
15:02 18.3 °F 10.7 °F 1025.6 in NW 38.9 mph 38.9 mph 61 % 0.0 in 387.0 W/m2 CLR
15:07 18.3 °F 10.4 °F 1025.6 in NNW 48.1 mph 48.1 mph 60 % 0.0 in 381.0 W/m2 CLR
15:12 18.3 °F 10.7 °F 1026.0 in North 44.4 mph 44.4 mph 61 % 0.0 in 373.0 W/m2 CLR
15:17 17.8 °F 10.2 °F 1026.0 in NNW 37.0 mph 37.0 mph 61 % 0.0 in 366.0 W/m2 CLR
15:22 17.8 °F 10.2 °F 1026.3 in NNW 40.7 mph 40.7 mph 61 % 0.0 in 357.0 W/m2 CLR
15:27 18.3 °F 10.7 °F 1026.3 in NNW 40.7 mph 40.7 mph 61 % 0.0 in 345.0 W/m2 CLR
15:32 18.3 °F 10.7 °F 1026.0 in North 35.4 mph 35.4 mph 61 % 0.0 in 338.0 W/m2 CLR
15:37 17.8 °F 10.2 °F 1026.3 in North 33.3 mph 33.3 mph 61 % 0.0 in 327.0 W/m2 CLR
15:42 17.8 °F 10.4 °F 1026.3 in North 37.0 mph 37.0 mph 62 % 0.0 in 316.0 W/m2 CLR
15:47 17.8 °F 10.4 °F 1026.3 in North 42.6 mph 42.6 mph 62 % 0.0 in 302.0 W/m2 CLR
15:52 18.3 °F 10.7 °F 1026.3 in NNW 46.7 mph 46.7 mph 61 % 0.0 in 301.0 W/m2 CLR
15:57 17.8 °F 10.2 °F 1026.3 in NNW 44.4 mph 44.4 mph 61 % 0.0 in 292.0 W/m2 CLR
16:02 17.8 °F 10.4 °F 1026.3 in NW 53.7 mph 53.7 mph 62 % 0.0 in 292.0 W/m2 CLR
16:07 17.8 °F 10.4 °F 1026.3 in NNW 42.6 mph 42.6 mph 62 % 0.0 in 265.0 W/m2 CLR
16:13 17.8 °F 10.4 °F 1026.3 in NW 40.2 mph 40.2 mph 62 % 0.0 in 65.0 W/m2 CLR
16:18 17.2 °F 10.1 °F 1026.3 in NNW 46.3 mph 46.3 mph 63 % 0.0 in 116.0 W/m2 CLR
16:23 17.2 °F 10.1 °F 1026.3 in NNW 44.4 mph 44.4 mph 63 % 0.0 in 211.0 W/m2 FEW
16:28 17.2 °F 10.1 °F 1026.3 in North 38.9 mph 38.9 mph 63 % 0.0 in 197.0 W/m2 CLR
16:33 17.2 °F 10.1 °F 1026.3 in NW 44.4 mph 44.4 mph 63 % 0.0 in 181.0 W/m2 CLR
16:38 17.2 °F 10.1 °F 1026.3 in NNW 50.0 mph 50.0 mph 63 % 0.0 in 172.0 W/m2 CLR
16:43 17.2 °F 10.1 °F 1026.3 in NNW 48.1 mph 48.1 mph 63 % 0.0 in 160.0 W/m2 CLR
16:48 16.7 °F 9.8 °F 1026.6 in NNW 42.6 mph 42.6 mph 64 % 0.0 in 146.0 W/m2 CLR
16:53 16.7 °F 9.8 °F 1026.6 in North 53.1 mph 53.1 mph 64 % 0.0 in 128.0 W/m2 CLR
16:58 16.7 °F 10.1 °F 1026.6 in NNW 33.3 mph 33.3 mph 65 % 0.0 in 118.0 W/m2 CLR
17:03 16.7 °F 10.1 °F 1026.6 in NNW 45.1 mph 45.1 mph 65 % 0.0 in 98.0 W/m2 CLR
17:08 16.7 °F 10.1 °F 1026.6 in NW 29.6 mph 29.6 mph 65 % 0.0 in 90.0 W/m2 CLR
17:13 16.1 °F 9.5 °F 1026.6 in NNW 44.4 mph 44.4 mph 65 % 0.0 in 74.0 W/m2 FEW
17:18 16.1 °F 9.8 °F 1026.6 in North 50.0 mph 50.0 mph 66 % 0.0 in 62.0 W/m2 SCT
17:23 16.1 °F 9.8 °F 1026.6 in NNW 48.1 mph 48.1 mph 66 % 0.0 in 47.0 W/m2 SCT
17:28 16.1 °F 10.0 °F 1026.3 in NNW 48.1 mph 48.1 mph 67 % 0.0 in 35.0 W/m2 BKN
17:33 15.6 °F 9.2 °F 1026.6 in North 55.5 mph 55.5 mph 66 % 0.0 in 25.0 W/m2 BKN
17:38 15.6 °F 9.4 °F 1026.6 in NNW 41.8 mph 41.8 mph 67 % 0.0 in 16.0 W/m2 BKN
17:43 15.6 °F 9.4 °F 1026.6 in North 51.8 mph 51.8 mph 67 % 0.0 in 12.0 W/m2 BKN
17:48 15.6 °F 9.4 °F 1026.6 in NNW 46.3 mph 46.3 mph 67 % 0.0 in 11.0 W/m2 BKN
17:53 15.6 °F 9.7 °F 1026.6 in North 42.6 mph 42.6 mph 68 % 0.0 in 9.0 W/m2 BKN
17:58 15.0 °F 9.1 °F 1026.6 in NNW 37.0 mph 37.0 mph 68 % 0.0 in 7.0 W/m2 BKN
18:03 15.0 °F 9.1 °F 1027.0 in North 40.7 mph 40.7 mph 68 % 0.0 in 5.0 W/m2 OVC
18:08 15.0 °F 9.1 °F 1027.0 in NNW 42.6 mph 42.6 mph 68 % 0.0 in 0.0 W/m2 OVC
18:13 15.0 °F 9.3 °F 1027.0 in NNW 40.7 mph 40.7 mph 69 % 0.0 in 0.0 W/m2 CLR
18:18 15.0 °F 9.3 °F 1027.0 in NW 38.9 mph 38.9 mph 69 % 0.0 in 0.0 W/m2 CLR
18:23 15.0 °F 9.3 °F 1027.0 in NNW 42.6 mph 42.6 mph 69 % 0.0 in 0.0 W/m2 CLR
18:28 15.0 °F 9.3 °F 1027.0 in North 55.5 mph 55.5 mph 69 % 0.0 in 0.0 W/m2 CLR
18:33 15.0 °F 9.3 °F 1027.0 in North 44.4 mph 44.4 mph 69 % 0.0 in 0.0 W/m2 CLR
18:38 15.0 °F 9.3 °F 1027.3 in NNW 44.4 mph 44.4 mph 69 % 0.0 in 0.0 W/m2 CLR
18:43 15.0 °F 9.3 °F 1027.3 in NW 31.5 mph 31.5 mph 69 % 0.0 in 0.0 W/m2 CLR
18:48 15.0 °F 9.3 °F 1027.3 in NW 31.5 mph 31.5 mph 69 % 0.0 in 0.0 W/m2 CLR
18:53 14.4 °F 8.8 °F 1027.3 in NW 42.6 mph 42.6 mph 69 % 0.0 in 0.0 W/m2 CLR
18:58 14.4 °F 8.8 °F 1027.7 in NW 33.8 mph 33.8 mph 69 % 0.0 in 0.0 W/m2 CLR
19:03 14.4 °F 8.8 °F 1027.7 in NW 31.5 mph 31.5 mph 69 % 0.0 in 0.0 W/m2 CLR
19:08 14.4 °F 9.1 °F 1027.7 in NW 31.5 mph 31.5 mph 70 % 0.0 in 0.0 W/m2 CLR
19:13 14.4 °F 9.1 °F 1028.0 in NW 46.3 mph 46.3 mph 70 % 0.0 in 0.0 W/m2 CLR
19:18 14.4 °F 9.1 °F 1027.7 in NW 50.0 mph 50.0 mph 70 % 0.0 in 0.0 W/m2 CLR
19:23 14.4 °F 9.1 °F 1028.0 in NW 46.3 mph 46.3 mph 70 % 0.0 in 0.0 W/m2 CLR
19:28 14.4 °F 9.1 °F 1028.0 in NW 40.7 mph 40.7 mph 70 % 0.0 in 0.0 W/m2 CLR
19:33 14.4 °F 9.1 °F 1028.0 in NNW 37.0 mph 37.0 mph 70 % 0.0 in 0.0 W/m2 CLR
19:38 14.4 °F 9.1 °F 1028.0 in NW 44.4 mph 44.4 mph 70 % 0.0 in 0.0 W/m2 CLR
19:43 14.4 °F 9.1 °F 1028.0 in NW 38.9 mph 38.9 mph 70 % 0.0 in 0.0 W/m2 CLR
19:48 14.4 °F 9.2 °F 1028.0 in WNW 42.6 mph 42.6 mph 71 % 0.0 in 0.0 W/m2 CLR
19:53 14.4 °F 9.1 °F 1028.0 in NNW 35.4 mph 35.4 mph 70 % 0.0 in 0.0 W/m2 CLR
19:58 14.4 °F 9.2 °F 1028.0 in NW 44.4 mph 44.4 mph 71 % 0.0 in 0.0 W/m2 CLR
20:03 13.9 °F 8.7 °F 1028.0 in NW 31.5 mph 31.5 mph 71 % 0.0 in 0.0 W/m2 CLR
20:08 13.9 °F 8.7 °F 1028.3 in NW 42.6 mph 42.6 mph 71 % 0.0 in 0.0 W/m2 CLR
20:13 13.9 °F 8.7 °F 1028.3 in NW 31.5 mph 31.5 mph 71 % 0.0 in 0.0 W/m2 CLR
20:18 13.9 °F 8.7 °F 1028.7 in NW 25.9 mph 25.9 mph 71 % 0.0 in 0.0 W/m2 CLR
20:23 13.9 °F 8.7 °F 1028.3 in NW 37.0 mph 37.0 mph 71 % 0.0 in 0.0 W/m2 CLR
20:28 13.9 °F 8.7 °F 1028.3 in NNW 42.6 mph 42.6 mph 71 % 0.0 in 0.0 W/m2 CLR
20:33 13.9 °F 8.7 °F 1028.3 in NW 35.2 mph 35.2 mph 71 % 0.0 in 0.0 W/m2 CLR
20:38 13.9 °F 8.7 °F 1028.3 in NW 37.0 mph 37.0 mph 71 % 0.0 in 0.0 W/m2 CLR
20:43 13.9 °F 8.7 °F 1028.7 in NNW 42.6 mph 42.6 mph 71 % 0.0 in 0.0 W/m2 CLR
20:48 13.9 °F 8.7 °F 1028.3 in NW 42.6 mph 42.6 mph 71 % 0.0 in 0.0 W/m2 CLR
20:50 13.9 °F 8.9 °F 1028.3 in NW 42.6 mph 42.6 mph 72 % 0.0 in 0.0 W/m2 CLR
20:55 13.9 °F 8.9 °F 1028.7 in NW 42.6 mph 42.6 mph 72 % 0.0 in 0.0 W/m2 CLR
21:00 13.9 °F 8.9 °F 1028.7 in NW 40.7 mph 40.7 mph 72 % 0.0 in 0.0 W/m2 CLR
21:05 13.9 °F 9.1 °F 1028.7 in NW 38.9 mph 38.9 mph 73 % 0.0 in 0.0 W/m2 CLR
21:10 13.9 °F 9.1 °F 1028.7 in NW 42.6 mph 42.6 mph 73 % 0.0 in 0.0 W/m2 CLR
21:15 13.9 °F 9.1 °F 1028.7 in WNW 35.2 mph 35.2 mph 73 % 0.0 in 0.0 W/m2 CLR
21:20 13.9 °F 9.1 °F 1028.7 in WNW 33.8 mph 33.8 mph 73 % 0.0 in 0.0 W/m2 CLR
21:25 13.9 °F 9.1 °F 1028.7 in WNW 42.6 mph 42.6 mph 73 % 0.0 in 0.0 W/m2 CLR
21:30 13.9 °F 9.3 °F 1028.7 in NW 38.6 mph 38.6 mph 74 % 0.0 in 0.0 W/m2 CLR
21:35 13.9 °F 9.1 °F 1028.7 in NW 37.0 mph 37.0 mph 73 % 0.0 in 0.0 W/m2 CLR
21:40 13.9 °F 9.3 °F 1028.7 in WNW 38.9 mph 38.9 mph 74 % 0.0 in 0.0 W/m2 CLR
21:45 13.9 °F 9.1 °F 1028.7 in NW 37.0 mph 37.0 mph 73 % 0.0 in 0.0 W/m2 CLR
21:50 13.9 °F 9.3 °F 1028.3 in WNW 42.6 mph 42.6 mph 74 % 0.0 in 0.0 W/m2 CLR
21:55 13.9 °F 9.3 °F 1028.7 in WNW 38.9 mph 38.9 mph 74 % 0.0 in 0.0 W/m2 CLR
22:00 13.9 °F 9.1 °F 1028.7 in NW 37.0 mph 37.0 mph 73 % 0.0 in 0.0 W/m2 CLR
22:05 13.9 °F 9.1 °F 1028.7 in WNW 42.6 mph 42.6 mph 73 % 0.0 in 0.0 W/m2 CLR
22:10 13.9 °F 9.3 °F 1028.7 in NW 37.0 mph 37.0 mph 74 % 0.0 in 0.0 W/m2 CLR
22:15 13.9 °F 9.3 °F 1028.7 in WNW 37.0 mph 37.0 mph 74 % 0.0 in 0.0 W/m2 CLR
22:20 13.3 °F 8.8 °F 1028.7 in NW 33.3 mph 33.3 mph 74 % 0.0 in 0.0 W/m2 CLR
22:25 13.9 °F 9.3 °F 1028.7 in WNW 37.0 mph 37.0 mph 74 % 0.0 in 0.0 W/m2 CLR
22:30 13.9 °F 9.3 °F 1028.7 in NW 29.6 mph 29.6 mph 74 % 0.0 in 0.0 W/m2 CLR
22:35 13.3 °F 8.8 °F 1029.0 in NW 29.6 mph 29.6 mph 74 % 0.0 in 0.0 W/m2 CLR
22:50 13.9 °F 9.1 °F 1029.0 in WNW 38.9 mph 38.9 mph 73 % 0.0 in 0.0 W/m2 CLR
22:55 13.9 °F 9.3 °F 1029.0 in NW 37.0 mph 37.0 mph 74 % 0.0 in 0.0 W/m2 CLR
23:00 13.9 °F 9.3 °F 1028.7 in NNW 37.0 mph 37.0 mph 74 % 0.0 in 0.0 W/m2 CLR
23:05 13.3 °F 8.8 °F 1028.7 in NW 35.2 mph 35.2 mph 74 % 0.0 in 0.0 W/m2 CLR
23:10 13.3 °F 9.0 °F 1028.7 in NW 29.6 mph 29.6 mph 75 % 0.0 in 0.0 W/m2 CLR
23:15 13.3 °F 9.0 °F 1028.7 in NW 38.9 mph 38.9 mph 75 % 0.0 in 0.0 W/m2 CLR
23:20 13.3 °F 9.0 °F 1028.7 in NW 31.5 mph 31.5 mph 75 % 0.0 in 0.0 W/m2 CLR
23:25 13.3 °F 9.0 °F 1028.7 in NNW 33.3 mph 33.3 mph 75 % 0.0 in 0.0 W/m2 CLR
23:30 13.3 °F 9.0 °F 1028.7 in NW 29.6 mph 29.6 mph 75 % 0.0 in 0.0 W/m2 CLR
23:35 13.3 °F 9.0 °F 1028.7 in WNW 29.6 mph 29.6 mph 75 % 0.0 in 0.0 W/m2 CLR
23:40 13.3 °F 8.8 °F 1028.7 in NW 24.1 mph 24.1 mph 74 % 0.0 in 0.0 W/m2 CLR
23:45 13.3 °F 8.6 °F 1029.0 in NW 29.6 mph 29.6 mph 73 % 0.0 in 0.0 W/m2 CLR
23:50 13.9 °F 8.9 °F 1029.0 in WNW 24.1 mph 24.1 mph 72 % 0.0 in 0.0 W/m2 CLR
23:55 13.3 °F 8.4 °F 1029.0 in WNW 33.3 mph 33.3 mph 72 % 0.0 in 0.0 W/m2 CLR
Lo Temps de Massalio
Compliments of Weather Underground - 1.25 mb